Time;durP1;ratioP1;P1;durP2;ratioP2;P2;SDS_P1;SDS_P2;PMS_P1;PMS_P2;Temp;Humidity;BMP_temperature;BMP_pressure;BME280_temperature;BME280_humidity;BME280_pressure;Samples;Min_cycle;Max_cycle;Signal;HPM_P1;HPM_P2
2021/09/17 00:02:05;;;;;;;;;16.25;14.00;;;;;19.90;49.47;101344.28;5020337;28;45488;-59
2021/09/17 00:04:31;;;;;;;;;15.25;15.00;;;;;19.90;49.77;101338.97;5015454;28;46046;-59
2021/09/17 00:06:56;;;;;;;;;16.25;13.75;;;;;19.89;49.84;101339.88;5019336;28;45226;-59
2021/09/17 00:09:21;;;;;;;;;13.50;13.00;;;;;19.88;49.34;101345.28;5020712;28;45667;-59
2021/09/17 00:11:48;;;;;;;;;12.50;11.00;;;;;19.87;49.44;101340.88;5018862;28;45273;-59
2021/09/17 00:14:13;;;;;;;;;17.50;12.50;;;;;19.86;49.89;101339.16;5020739;28;45350;-59
2021/09/17 00:16:39;;;;;;;;;15.75;14.00;;;;;19.83;49.62;101332.16;5020059;28;45222;-59
2021/09/17 00:19:05;;;;;;;;;13.75;12.00;;;;;19.81;49.96;101326.84;5015955;28;45378;-59
2021/09/17 00:21:30;;;;;;;;;15.75;13.25;;;;;19.78;50.16;101320.78;5000144;28;45591;-58
2021/09/17 00:23:55;;;;;;;;;16.50;13.25;;;;;19.79;50.07;101323.38;5000510;28;46212;-58
2021/09/17 00:26:21;;;;;;;;;13.25;12.75;;;;;19.76;50.17;101319.97;5000092;28;45400;-58
2021/09/17 00:28:47;;;;;;;;;13.25;13.25;;;;;19.75;50.30;101316.47;5000448;28;45249;-58
2021/09/17 00:31:13;;;;;;;;;18.00;15.50;;;;;19.73;49.71;101320.13;5000255;28;45444;-58
2021/09/17 00:33:38;;;;;;;;;16.75;14.50;;;;;19.71;49.84;101317.53;4998630;28;47219;-58
2021/09/17 00:36:04;;;;;;;;;17.25;14.00;;;;;19.69;49.82;101316.72;5000120;28;45334;-59
2021/09/17 00:38:30;;;;;;;;;16.25;13.50;;;;;19.61;50.13;101305.53;5000628;28;45243;-58
2021/09/17 00:40:55;;;;;;;;;15.75;12.25;;;;;19.64;50.16;101316.06;4999864;28;45504;-59
2021/09/17 00:43:20;;;;;;;;;12.25;12.25;;;;;19.63;49.88;101320.53;5006526;28;47460;-59
2021/09/17 00:45:47;;;;;;;;;12.25;11.25;;;;;19.61;49.92;101310.88;5017883;28;45238;-59
2021/09/17 00:48:12;;;;;;;;;13.75;12.75;;;;;19.59;50.29;101315.41;5020312;28;45282;-59
2021/09/17 00:50:38;;;;;;;;;13.50;12.50;;;;;19.57;50.43;101311.91;5018352;28;45252;-59
2021/09/17 00:53:04;;;;;;;;;16.00;13.00;;;;;19.56;50.25;101307.50;5019869;28;46169;-59
2021/09/17 00:55:30;;;;;;;;;17.75;13.75;;;;;19.54;50.21;101296.06;5019634;28;45378;-59
2021/09/17 00:57:56;;;;;;;;;13.50;13.25;;;;;19.51;50.03;101297.06;5019813;28;45398;-59
2021/09/17 01:00:22;;;;;;;;;13.25;13.25;;;;;19.49;50.69;101289.13;5018298;28;46140;-59
2021/09/17 01:02:47;;;;;;;;;12.25;11.50;;;;;19.48;50.45;101287.41;5019727;28;46221;-59
2021/09/17 01:05:14;;;;;;;;;12.00;12.00;;;;;19.46;50.32;101286.59;5013607;28;45252;-59
2021/09/17 01:07:39;;;;;;;;;15.75;14.00;;;;;19.45;50.14;101290.19;5020006;28;45325;-59
2021/09/17 01:10:06;;;;;;;;;15.00;13.00;;;;;19.43;50.55;101285.84;5019492;28;45320;-59
2021/09/17 01:12:32;;;;;;;;;11.25;10.00;;;;;19.40;50.76;101286.84;5018086;28;46105;-59
2021/09/17 01:14:57;;;;;;;;;12.00;12.00;;;;;19.40;50.54;101281.53;5019441;28;45253;-59
2021/09/17 01:17:35;;;;;;;;;11.75;11.75;;;;;19.39;50.34;101281.59;5019647;28;45255;-59
2021/09/17 01:20:01;;;;;;;;;14.50;11.50;;;;;19.37;50.72;101283.44;4999661;28;45613;-59
2021/09/17 01:22:26;;;;;;;;;14.25;13.25;;;;;19.31;50.61;101276.59;4999566;28;46114;-59
2021/09/17 01:24:51;;;;;;;;;10.75;10.75;;;;;19.31;50.67;101274.78;4999693;28;45279;-59
2021/09/17 01:27:17;;;;;;;;;12.25;11.00;;;;;19.30;50.50;101283.72;4999720;28;45252;-59
2021/09/17 01:29:42;;;;;;;;;14.75;12.75;;;;;19.27;50.47;101272.31;4999753;28;45330;-59
2021/09/17 01:32:08;;;;;;;;;12.75;12.75;;;;;19.23;50.41;101260.06;4998275;28;46013;-59
2021/09/17 01:34:33;;;;;;;;;15.00;14.25;;;;;19.26;50.65;101270.59;4999554;28;45289;-59
2021/09/17 01:36:58;;;;;;;;;13.00;12.00;;;;;19.24;50.65;101267.97;4998553;28;45382;-59
2021/09/17 01:39:25;;;;;;;;;13.25;13.25;;;;;19.23;50.70;101268.06;5017250;28;45410;-59
2021/09/17 01:41:50;;;;;;;;;14.25;13.25;;;;;19.21;50.37;101259.28;5006551;28;46040;-59
2021/09/17 01:44:16;;;;;;;;;12.25;12.25;;;;;19.20;50.48;101261.06;4999225;28;45233;-59
2021/09/17 01:46:41;;;;;;;;;14.50;13.75;;;;;19.17;50.96;101256.72;5002630;28;45222;-59
2021/09/17 01:49:08;;;;;;;;;13.75;11.75;;;;;19.16;50.65;101259.47;5002807;28;45344;-59
2021/09/17 01:51:34;;;;;;;;;11.50;11.50;;;;;19.14;50.61;101256.88;5002791;28;46127;-59
2021/09/17 01:54:02;;;;;;;;;13.50;12.75;;;;;19.13;50.82;101249.81;5020190;28;45311;-59
2021/09/17 01:56:27;;;;;;;;;12.50;12.50;;;;;19.12;50.88;101250.72;5010049;28;45329;-59
2021/09/17 01:58:53;;;;;;;;;17.00;15.25;;;;;19.09;50.74;101248.19;5002393;28;45329;-59
2021/09/17 02:01:19;;;;;;;;;16.25;13.00;;;;;19.08;50.82;101242.94;5001209;28;45537;-59
2021/09/17 02:03:45;;;;;;;;;13.00;13.00;;;;;19.07;50.75;101241.19;5002500;28;45277;-59
2021/09/17 02:06:17;;;;;;;;;10.75;10.75;;;;;19.06;51.06;101236.81;5015271;28;45265;-59
2021/09/17 02:08:43;;;;;;;;;15.50;13.25;;;;;19.03;51.04;101235.16;5021110;28;45465;-59
2021/09/17 02:11:08;;;;;;;;;14.25;14.00;;;;;19.00;50.91;101233.47;5020753;28;48120;-59
2021/09/17 02:13:33;;;;;;;;;10.75;9.75;;;;;19.00;50.83;101237.94;5022440;28;45327;-59
2021/09/17 02:15:59;;;;;;;;;16.50;13.50;;;;;18.96;51.20;101229.19;5022484;28;45290;-59
2021/09/17 02:18:24;;;;;;;;;14.50;13.00;;;;;18.96;51.26;101226.53;5009005;28;45286;-58
2021/09/17 02:20:49;;;;;;;;;15.00;15.00;;;;;18.96;51.30;101228.34;5015289;28;45258;-59
2021/09/17 02:23:15;;;;;;;;;15.00;13.75;;;;;18.95;51.13;101231.94;5001351;28;45306;-59
2021/09/17 02:25:40;;;;;;;;;14.00;13.00;;;;;18.94;51.00;101224.88;5015362;28;45245;-59
2021/09/17 02:28:06;;;;;;;;;15.00;14.25;;;;;18.91;51.21;101217.88;5021933;28;45340;-59
2021/09/17 02:30:31;;;;;;;;;16.50;14.00;;;;;18.88;51.44;101217.97;5021916;28;46346;-59
2021/09/17 02:32:57;;;;;;;;;15.50;13.75;;;;;18.89;51.26;101218.84;5021865;28;45288;-59
2021/09/17 02:35:22;;;;;;;;;15.25;14.00;;;;;18.87;51.32;101215.34;5022272;28;45540;-59
2021/09/17 02:37:48;;;;;;;;;13.75;12.75;;;;;18.85;51.14;101218.09;5021932;28;45163;-59
2021/09/17 02:40:15;;;;;;;;;14.50;14.50;;;;;18.84;50.97;101219.91;5021599;28;46280;-59
2021/09/17 02:42:41;;;;;;;;;14.75;14.75;;;;;18.82;51.58;101227.06;5021564;28;45266;-59
2021/09/17 02:45:09;;;;;;;;;17.50;15.25;;;;;18.81;51.30;101216.50;5022004;28;45332;-59
2021/09/17 02:47:35;;;;;;;;;13.75;13.25;;;;;18.79;51.24;101224.56;5021817;28;45656;-59
2021/09/17 02:50:01;;;;;;;;;15.75;15.50;;;;;18.77;51.50;101226.41;5021537;28;47338;-59
2021/09/17 02:52:27;;;;;;;;;17.00;14.25;;;;;18.77;51.58;101222.88;5021574;28;45265;-59
2021/09/17 02:54:52;;;;;;;;;13.50;13.50;;;;;18.75;50.88;101214.94;5021946;28;45593;-59
2021/09/17 02:57:19;;;;;;;;;16.25;15.50;;;;;18.74;51.53;101215.00;5020871;28;45254;-59
2021/09/17 02:59:44;;;;;;;;;16.00;15.00;;;;;18.72;51.55;101216.88;5021340;28;46172;-59
2021/09/17 03:02:10;;;;;;;;;17.50;12.75;;;;;18.69;51.19;101207.19;5021372;28;45269;-59
2021/09/17 03:04:35;;;;;;;;;12.75;12.50;;;;;18.69;51.61;101209.84;5015915;28;45258;-59
2021/09/17 03:07:01;;;;;;;;;31.00;27.75;;;;;18.65;51.71;101202.94;5020777;28;45557;-59
2021/09/17 03:09:26;;;;;;;;;15.00;15.00;;;;;18.64;51.38;101204.75;5000155;28;47514;-59
2021/09/17 03:11:52;;;;;;;;;15.75;14.25;;;;;18.63;51.49;101197.69;5018872;28;45426;-59
2021/09/17 03:14:18;;;;;;;;;17.75;15.50;;;;;18.61;51.32;101199.53;5021583;28;45331;-59
2021/09/17 03:16:43;;;;;;;;;16.75;16.50;;;;;18.60;51.45;101200.47;5019933;28;45806;-59
2021/09/17 03:19:08;;;;;;;;;17.25;14.50;;;;;18.58;51.59;101197.00;5009310;28;46950;-59
2021/09/17 03:21:34;;;;;;;;;14.50;12.50;;;;;18.58;51.58;101188.13;5001173;28;45424;-59
2021/09/17 03:23:59;;;;;;;;;15.50;14.25;;;;;18.55;51.83;101191.78;5001689;28;45307;-59
2021/09/17 03:26:24;;;;;;;;;15.25;15.00;;;;;18.55;51.73;101193.59;5001099;28;45510;-59
2021/09/17 03:28:50;;;;;;;;;14.50;13.50;;;;;18.54;51.47;101189.19;5001285;28;45592;-59
2021/09/17 03:31:15;;;;;;;;;12.50;12.25;;;;;18.51;51.46;101187.53;5014840;28;45237;-59
2021/09/17 03:33:40;;;;;;;;;17.25;15.50;;;;;18.47;51.71;101181.47;5012774;28;45174;-59
2021/09/17 03:36:06;;;;;;;;;18.50;15.00;;;;;18.48;51.58;101182.34;5021004;28;45250;-59
2021/09/17 03:38:31;;;;;;;;;24.00;19.75;;;;;18.45;51.84;101178.00;5020881;28;45434;-59
2021/09/17 03:40:57;;;;;;;;;15.25;14.25;;;;;18.44;51.39;101176.28;5019224;28;45254;-59
2021/09/17 03:43:22;;;;;;;;;12.75;11.25;;;;;18.44;51.88;101175.38;5020980;28;45320;-59
2021/09/17 03:45:47;;;;;;;;;15.75;15.75;;;;;18.43;51.69;101179.00;5020855;28;45466;-59
2021/09/17 03:48:13;;;;;;;;;12.50;12.25;;;;;18.41;51.75;101180.84;5020875;28;45320;-59
2021/09/17 03:50:39;;;;;;;;;13.25;12.25;;;;;18.40;51.92;101179.13;5020692;28;45475;-59
2021/09/17 03:53:05;;;;;;;;;13.25;12.50;;;;;18.38;52.05;101175.63;5021095;28;45470;-59
2021/09/17 03:55:32;;;;;;;;;15.00;15.00;;;;;18.37;51.87;101182.75;5020495;28;45313;-59
2021/09/17 03:57:57;;;;;;;;;17.25;13.50;;;;;18.36;51.69;101178.38;5020231;28;45451;-59
2021/09/17 04:00:23;;;;;;;;;17.25;14.75;;;;;18.34;51.68;101181.09;5020265;28;45322;-59
2021/09/17 04:02:48;;;;;;;;;14.00;13.25;;;;;18.33;52.00;101176.69;5019452;28;45365;-59
2021/09/17 04:05:14;;;;;;;;;12.50;11.50;;;;;18.32;51.86;101179.44;5013131;28;45588;-59
2021/09/17 04:07:41;;;;;;;;;14.75;14.25;;;;;18.30;51.93;101179.50;5019969;28;45965;-59
2021/09/17 04:10:08;;;;;;;;;14.25;13.25;;;;;18.28;51.78;101178.69;5020311;28;45414;-59
2021/09/17 04:12:34;;;;;;;;;26.25;21.50;;;;;18.27;52.08;101182.25;5020549;28;45220;-59
2021/09/17 04:14:59;;;;;;;;;15.75;15.75;;;;;18.25;51.91;101186.78;5018984;28;45997;-59
2021/09/17 04:17:25;;;;;;;;;44.00;39.00;;;;;18.25;52.10;101185.91;5020414;28;46195;-59
2021/09/17 04:19:51;;;;;;;;;15.75;15.00;;;;;18.24;51.79;101187.72;5002341;28;45364;-59
2021/09/17 04:22:16;;;;;;;;;14.75;14.00;;;;;18.23;52.05;101193.94;5000704;28;45408;-59
2021/09/17 04:24:42;;;;;;;;;13.50;11.75;;;;;18.21;52.13;101187.81;5000380;28;45544;-59
2021/09/17 04:27:07;;;;;;;;;15.50;15.25;;;;;18.21;52.08;101189.63;5000031;28;46525;-59
2021/09/17 04:29:33;;;;;;;;;14.75;14.00;;;;;18.18;52.23;101175.50;5000307;28;45301;-59
2021/09/17 04:31:58;;;;;;;;;13.50;11.50;;;;;18.18;51.95;101174.66;4999204;28;45406;-59
2021/09/17 04:34:24;;;;;;;;;14.75;14.75;;;;;18.17;52.25;101180.88;5000271;28;45461;-59
2021/09/17 04:36:49;;;;;;;;;15.75;13.00;;;;;18.14;51.88;101179.22;5000229;28;45261;-59
2021/09/17 04:39:14;;;;;;;;;14.00;13.50;;;;;18.14;52.10;101173.91;5000120;28;45278;-59
2021/09/17 04:41:40;;;;;;;;;13.25;13.00;;;;;18.13;52.04;101176.63;5000163;28;45163;-59
2021/09/17 04:44:05;;;;;;;;;12.50;12.50;;;;;18.10;52.24;101180.28;5000019;28;45668;-59
2021/09/17 04:46:30;;;;;;;;;13.25;12.00;;;;;18.09;52.15;101181.19;4998995;28;47145;-59
2021/09/17 04:48:56;;;;;;;;;13.75;12.25;;;;;18.08;52.10;101183.91;5000057;28;45338;-59
2021/09/17 04:51:21;;;;;;;;;14.50;14.25;;;;;18.06;52.02;101178.63;5000293;28;45308;-59
2021/09/17 04:53:47;;;;;;;;;12.25;12.25;;;;;18.06;52.03;101178.63;5000038;28;45512;-59
2021/09/17 04:56:12;;;;;;;;;15.50;13.75;;;;;18.05;52.09;101179.59;4999957;28;45992;-59
2021/09/17 04:58:37;;;;;;;;;16.25;15.00;;;;;18.03;52.13;101178.78;4999653;28;45313;-59
2021/09/17 05:01:03;;;;;;;;;18.75;15.50;;;;;18.02;52.41;101174.38;5000139;28;45311;-59
2021/09/17 05:03:28;;;;;;;;;19.75;18.50;;;;;18.01;52.12;101177.94;5015635;28;45254;-59
2021/09/17 05:05:53;;;;;;;;;17.25;15.00;;;;;17.99;52.22;101178.00;5013540;28;45163;-59
2021/09/17 05:08:19;;;;;;;;;17.50;14.25;;;;;17.98;52.29;101178.09;5019761;28;45194;-59
2021/09/17 05:10:45;;;;;;;;;13.75;13.75;;;;;17.95;52.49;101172.88;5019700;28;45658;-59
2021/09/17 05:13:10;;;;;;;;;13.50;13.00;;;;;17.95;52.51;101176.41;5019534;28;45552;-59
2021/09/17 05:15:36;;;;;;;;;13.25;13.25;;;;;17.93;52.45;101180.03;5019485;28;45317;-59
2021/09/17 05:18:01;;;;;;;;;15.00;13.50;;;;;17.91;52.44;101181.84;5016225;28;45339;-59
2021/09/17 05:20:26;;;;;;;;;14.50;12.00;;;;;17.87;52.51;101178.44;5009824;28;45391;-59
2021/09/17 05:22:52;;;;;;;;;14.50;12.50;;;;;17.83;52.40;101174.19;5006431;28;45420;-59
2021/09/17 05:25:17;;;;;;;;;13.25;11.75;;;;;17.83;52.32;101176.84;5002983;28;46420;-59
2021/09/17 05:27:43;;;;;;;;;13.50;13.00;;;;;17.80;52.39;101180.47;5003016;28;45408;-59
2021/09/17 05:30:09;;;;;;;;;19.25;17.00;;;;;17.76;52.45;101181.53;5002054;28;45386;-59
2021/09/17 05:32:34;;;;;;;;;14.75;14.00;;;;;17.75;52.43;101171.81;5003005;28;45451;-58
2021/09/17 05:35:00;;;;;;;;;15.00;13.75;;;;;17.74;52.48;101164.75;5002977;28;45394;-59
2021/09/17 05:37:25;;;;;;;;;16.50;15.00;;;;;17.70;52.42;101163.16;5001869;28;45341;-59
2021/09/17 05:39:50;;;;;;;;;15.25;15.25;;;;;17.70;52.48;101158.69;5011600;28;45519;-59
2021/09/17 05:42:16;;;;;;;;;16.50;14.50;;;;;17.68;52.49;101159.66;5005898;28;45226;-59
2021/09/17 05:44:41;;;;;;;;;19.75;17.75;;;;;17.68;52.17;101163.22;5002948;28;47071;-59
2021/09/17 05:47:07;;;;;;;;;18.00;18.00;;;;;17.65;52.61;101154.47;5002660;28;45194;-58
2021/09/17 05:49:32;;;;;;;;;14.00;13.75;;;;;17.64;52.34;101152.75;5003267;28;45277;-57
2021/09/17 05:51:57;;;;;;;;;18.50;18.00;;;;;17.66;52.69;101172.13;5003538;28;45632;-58
2021/09/17 05:54:23;;;;;;;;;18.00;15.75;;;;;17.64;52.58;101169.53;5009682;28;46271;-58
2021/09/17 05:56:48;;;;;;;;;16.75;16.00;;;;;17.68;52.74;101162.31;5013658;28;45347;-60
2021/09/17 05:59:14;;;;;;;;;16.75;15.25;;;;;17.68;52.76;101165.88;5011846;28;45526;-58
2021/09/17 06:01:39;;;;;;;;;15.25;13.50;;;;;17.68;52.61;101163.22;5010770;28;45294;-55
2021/09/17 06:04:05;;;;;;;;;16.75;16.75;;;;;17.69;52.58;101166.72;5007501;28;46205;-57
2021/09/17 06:06:30;;;;;;;;;19.50;16.00;;;;;17.67;52.90;101156.16;5009536;28;45428;-57
2021/09/17 06:08:57;;;;;;;;;17.75;15.75;;;;;17.71;52.74;101162.22;5018651;28;45298;-57
2021/09/17 06:11:22;;;;;;;;;17.50;15.75;;;;;17.66;52.79;101156.19;5008595;28;45424;-56
2021/09/17 06:13:48;;;;;;;;;17.25;16.25;;;;;17.70;52.82;101161.34;5015034;28;46130;-56
2021/09/17 06:16:13;;;;;;;;;21.25;17.00;;;;;17.73;52.89;101162.16;5001810;28;45365;-56
2021/09/17 06:18:39;;;;;;;;;15.75;15.75;;;;;17.72;52.74;101155.97;5011481;28;45241;-56
2021/09/17 06:21:04;;;;;;;;;20.25;19.00;;;;;17.73;52.94;101164.81;5015052;28;45214;-59
2021/09/17 06:23:29;;;;;;;;;20.75;14.50;;;;;17.74;52.87;101162.09;5009237;28;45377;-59
2021/09/17 06:25:58;;;;;;;;;19.50;19.00;;;;;17.75;52.78;101165.59;5007020;28;45282;-59
2021/09/17 06:28:26;;;;;;;;;18.50;18.25;;;;;17.77;52.90;101164.63;5015236;28;45312;-58
2021/09/17 06:30:52;;;;;;;;;17.75;17.75;;;;;17.76;52.85;101156.72;5014627;28;45333;-58
2021/09/17 06:33:18;;;;;;;;;16.50;16.50;;;;;17.78;52.99;101163.72;5009754;28;46216;-57
2021/09/17 06:35:43;;;;;;;;;25.00;18.75;;;;;17.79;53.06;101162.78;5008282;28;45337;-57
2021/09/17 06:38:08;;;;;;;;;21.50;19.50;;;;;17.79;52.80;101153.97;5019988;28;45399;-61
2021/09/17 06:40:34;;;;;;;;;15.00;14.25;;;;;17.82;53.21;101162.69;5021494;28;45526;-61
2021/09/17 06:42:59;;;;;;;;;19.25;17.50;;;;;17.80;52.97;101153.91;5020406;28;46202;-61
2021/09/17 06:45:25;;;;;;;;;21.75;20.50;;;;;17.77;52.98;101148.69;5021828;28;45341;-61
2021/09/17 06:47:55;;;;;;;;;21.75;21.50;;;;;17.85;52.92;101161.72;5006612;28;45230;-61
2021/09/17 06:50:23;;;;;;;;;21.75;21.75;;;;;17.85;53.19;101156.38;5001802;28;45487;-62
2021/09/17 06:52:50;;;;;;;;;24.50;21.00;;;;;17.85;53.11;101162.56;5020223;28;47100;-61
2021/09/17 06:55:17;;;;;;;;;27.00;23.00;;;;;17.85;53.09;101159.91;5019914;28;45339;-61
2021/09/17 06:57:54;;;;;;;;;23.25;21.50;;;;;17.86;53.09;101158.09;5007216;28;45381;-62
2021/09/17 07:00:22;;;;;;;;;22.50;21.25;;;;;17.85;53.27;101157.25;5021349;28;45285;-61
2021/09/17 07:02:48;;;;;;;;;31.50;25.50;;;;;17.85;52.95;101159.91;5010504;28;46329;-61
2021/09/17 07:05:14;;;;;;;;;22.75;18.75;;;;;17.85;53.33;101148.41;5001417;28;45266;-61
2021/09/17 07:07:39;;;;;;;;;15.50;12.75;;;;;17.85;53.25;101159.91;5005643;28;45261;-62
2021/09/17 07:10:06;;;;;;;;;23.75;21.00;;;;;17.84;53.24;101157.31;5016322;28;45651;-61
2021/09/17 07:12:33;;;;;;;;;24.50;20.25;;;;;17.84;53.13;101149.34;5020013;28;47305;-61
2021/09/17 07:14:58;;;;;;;;;27.50;23.25;;;;;17.82;53.35;101146.75;5021180;28;45191;-62
2021/09/17 07:17:24;;;;;;;;;26.00;25.75;;;;;17.82;53.16;101141.44;5021551;28;45238;-61
2021/09/17 07:19:49;;;;;;;;;23.25;21.75;;;;;17.83;53.43;101143.13;5021322;28;45231;-61
2021/09/17 07:22:15;;;;;;;;;29.50;23.25;;;;;17.84;53.34;101144.88;5021222;28;45725;-62
2021/09/17 07:24:40;;;;;;;;;24.75;23.25;;;;;17.85;53.38;101149.28;5021285;28;45424;-62
2021/09/17 07:27:06;;;;;;;;;21.75;21.00;;;;;17.85;53.69;101138.63;5011585;28;45424;-62
2021/09/17 07:29:31;;;;;;;;;24.75;24.75;;;;;17.88;53.28;101137.66;5016206;28;45381;-62
2021/09/17 07:31:56;;;;;;;;;27.75;23.00;;;;;17.91;53.47;101141.97;5021085;28;45390;-62
2021/09/17 07:34:22;;;;;;;;;26.50;24.50;;;;;17.92;53.53;101141.06;5021022;28;45258;-62
2021/09/17 07:36:47;;;;;;;;;28.25;26.75;;;;;17.93;53.67;101138.34;5019962;28;45433;-62
2021/09/17 07:39:13;;;;;;;;;24.50;21.25;;;;;17.96;53.53;101137.38;5020981;28;45335;-62
2021/09/17 07:41:38;;;;;;;;;20.75;19.50;;;;;17.98;53.54;101141.72;5020657;28;46217;-62
2021/09/17 07:44:04;;;;;;;;;24.75;20.75;;;;;17.99;53.71;101142.59;5019693;28;45262;-62
2021/09/17 07:46:29;;;;;;;;;18.75;18.75;;;;;18.03;53.72;101146.84;5019872;28;45479;-62
2021/09/17 07:48:55;;;;;;;;;25.50;20.50;;;;;18.06;53.78;101149.38;5020851;28;45403;-62
2021/09/17 07:51:20;;;;;;;;;19.75;17.25;;;;;18.08;53.73;101147.53;5013011;28;45179;-62
2021/09/17 07:53:45;;;;;;;;;24.50;23.00;;;;;18.11;53.88;101158.06;5015434;28;45170;-62
2021/09/17 07:56:11;;;;;;;;;23.75;21.50;;;;;18.14;53.95;101155.28;5011898;28;45380;-62
2021/09/17 07:58:36;;;;;;;;;21.75;19.25;;;;;18.18;53.88;101156.88;5020401;28;45308;-62
2021/09/17 08:01:02;;;;;;;;;19.25;19.25;;;;;18.22;53.72;101154.97;5020538;28;45345;-62
2021/09/17 08:03:31;;;;;;;;;15.25;13.25;;;;;18.25;54.08;101151.31;5014989;28;45253;-62
2021/09/17 08:05:58;;;;;;;;;12.00;12.00;;;;;18.31;53.72;101154.63;5000984;28;45286;-62
2021/09/17 08:08:23;;;;;;;;;15.75;14.75;;;;;18.35;54.00;101152.69;5000608;28;45504;-62
2021/09/17 08:10:49;;;;;;;;;17.25;15.50;;;;;18.37;54.08;101142.84;5000349;28;46066;-62
2021/09/17 08:13:14;;;;;;;;;12.25;11.50;;;;;18.42;54.10;101150.66;5000509;28;45346;-62
2021/09/17 08:15:40;;;;;;;;;14.50;14.50;;;;;18.46;53.77;101154.91;5000878;28;45302;-62
2021/09/17 08:18:05;;;;;;;;;11.50;10.75;;;;;18.50;53.64;101152.09;5018606;28;45235;-62
2021/09/17 08:20:30;;;;;;;;;10.50;10.50;;;;;18.56;53.72;101153.59;5007916;28;46308;-62
2021/09/17 08:22:56;;;;;;;;;11.25;9.25;;;;;18.59;53.94;101156.16;5000466;28;45167;-62
2021/09/17 08:25:21;;;;;;;;;10.25;8.75;;;;;18.63;53.64;101159.56;5000470;28;45238;-62
2021/09/17 08:27:47;;;;;;;;;11.25;10.50;;;;;18.71;53.71;101156.59;5000216;28;45254;-62
2021/09/17 08:30:13;;;;;;;;;15.25;12.00;;;;;18.76;53.62;101162.56;5000617;28;45300;-62
2021/09/17 08:32:39;;;;;;;;;10.50;9.50;;;;;18.80;53.71;101157.06;4998975;28;45314;-62
2021/09/17 08:35:09;;;;;;;;;10.00;9.00;;;;;18.86;53.81;101158.59;5000503;28;45255;-61
2021/09/17 08:37:35;;;;;;;;;10.75;10.25;;;;;18.94;53.76;101158.28;5000483;28;45337;-62
2021/09/17 08:40:00;;;;;;;;;12.75;10.00;;;;;19.00;53.66;101153.59;4999816;28;46137;-62
2021/09/17 08:42:26;;;;;;;;;14.50;12.50;;;;;19.08;53.52;101152.38;5015213;28;45246;-62
2021/09/17 08:44:51;;;;;;;;;11.75;11.00;;;;;19.14;54.03;101141.44;5013459;28;45329;-62
2021/09/17 08:47:18;;;;;;;;;12.25;10.25;;;;;19.20;53.72;101149.19;5020078;28;45368;-62
2021/09/17 08:49:45;;;;;;;;;13.25;12.25;;;;;19.28;53.93;101151.50;5019948;28;47109;-62
2021/09/17 08:52:10;;;;;;;;;13.00;12.25;;;;;19.34;53.38;101145.91;5011099;28;45649;-62
2021/09/17 08:54:35;;;;;;;;;11.75;10.75;;;;;19.43;53.11;101147.28;5019743;28;45334;-62
2021/09/17 08:57:01;;;;;;;;;11.75;11.75;;;;;19.51;53.76;101152.25;5019347;28;45262;-63
2021/09/17 08:59:26;;;;;;;;;12.00;11.00;;;;;19.57;53.29;101144.00;5019829;28;45317;-63
2021/09/17 09:01:52;;;;;;;;;14.00;12.75;;;;;19.68;53.24;101139.03;5018401;28;45317;-63
2021/09/17 09:04:29;;;;;;;;;12.50;12.25;;;;;19.74;53.64;101144.09;5007654;28;45290;-62
2021/09/17 09:07:03;;;;;;;;;10.75;10.75;;;;;19.84;53.67;101146.38;4998645;28;45473;-62
2021/09/17 09:09:29;;;;;;;;;10.50;10.00;;;;;19.93;53.31;101148.59;4998445;28;46040;-62
2021/09/17 09:11:54;;;;;;;;;9.00;8.00;;;;;20.03;53.10;101141.03;4999467;28;45243;-62
2021/09/17 09:14:20;;;;;;;;;8.75;8.50;;;;;20.10;53.62;101142.44;5000100;28;45306;-62
2021/09/17 09:16:51;;;;;;;;;10.00;9.75;;;;;20.23;52.97;101134.75;4999988;28;45436;-63
2021/09/17 09:19:34;;;;;;;;;12.25;10.00;;;;;20.34;53.05;101132.41;4999688;28;46277;-62
2021/09/17 09:22:03;;;;;;;;;15.00;12.00;;;;;20.45;52.92;101130.06;4999699;28;45221;-62
2021/09/17 09:24:30;;;;;;;;;8.00;8.00;;;;;20.57;52.83;101133.06;5012976;28;45444;-62
2021/09/17 09:27:19;;;;;;;;;8.50;7.75;;;;;20.70;53.28;101133.31;5010468;28;45396;-63
2021/09/17 09:29:47;;;;;;;;;9.00;8.25;;;;;20.81;52.62;101132.81;5019400;28;46293;-62
2021/09/17 09:32:30;;;;;;;;;8.50;7.75;;;;;20.93;52.57;101134.88;5019335;28;45399;-62
2021/09/17 09:34:59;;;;;;;;;8.25;8.25;;;;;21.03;52.92;101127.22;5019709;28;45380;-62
2021/09/17 09:37:29;;;;;;;;;8.75;8.50;;;;;21.13;52.49;101128.47;5019262;28;45478;-62
2021/09/17 09:40:12;;;;;;;;;6.00;6.00;;;;;21.25;52.38;101121.63;5006722;28;45365;-63
2021/09/17 09:42:43;;;;;;;;;7.50;7.50;;;;;21.36;52.52;101129.91;5006244;28;45481;-65
2021/09/17 09:45:19;;;;;;;;;7.00;7.00;;;;;21.47;52.08;101126.69;5019428;28;45588;-63
2021/09/17 09:47:49;;;;;;;;;10.75;9.50;;;;;21.56;51.96;101123.53;5019343;28;45308;-63
2021/09/17 09:50:26;;;;;;;;;8.00;7.75;;;;;21.69;52.22;101126.38;5019009;28;45281;-63
2021/09/17 09:52:55;;;;;;;;;9.25;7.75;;;;;21.81;52.17;101130.22;5011374;28;45271;-63
2021/09/17 09:55:21;;;;;;;;;11.25;9.00;;;;;21.92;51.67;101124.25;5018973;28;45469;-63
2021/09/17 09:57:47;;;;;;;;;8.75;8.00;;;;;22.04;51.64;101128.91;5019009;28;45675;-63
2021/09/17 10:00:13;;;;;;;;;6.50;6.00;;;;;22.14;51.44;101123.03;5018822;28;46128;-62
2021/09/17 10:02:40;;;;;;;;;7.25;7.25;;;;;22.26;51.68;101116.13;5019302;28;45300;-62
2021/09/17 10:05:07;;;;;;;;;8.25;7.25;;;;;22.37;51.63;101119.09;5000327;28;45293;-62
2021/09/17 10:07:34;;;;;;;;;8.50;8.50;;;;;22.47;51.35;101116.75;5002104;28;45285;-62
2021/09/17 10:10:00;;;;;;;;;5.25;5.25;;;;;22.54;51.18;101110.94;5002070;28;46145;-62
2021/09/17 10:12:27;;;;;;;;;6.75;6.75;;;;;22.68;51.09;101110.09;5002626;28;45250;-62
2021/09/17 10:14:54;;;;;;;;;8.50;7.50;;;;;22.78;50.90;101112.22;5002538;28;45226;-62
2021/09/17 10:17:23;;;;;;;;;5.50;5.50;;;;;22.84;50.73;101110.06;5013784;28;45517;-62
2021/09/17 10:19:51;;;;;;;;;6.25;6.25;;;;;22.90;50.71;101100.78;5002303;28;46409;-62
2021/09/17 10:22:46;;;;;;;;;8.75;7.00;;;;;23.00;50.53;101101.09;5002331;28;45162;-62
2021/09/17 10:25:20;;;;;;;;;6.00;6.00;;;;;23.07;50.32;101104.25;5013064;28;45433;-62
2021/09/17 10:28:08;;;;;;;;;8.00;6.00;;;;;23.14;50.24;101097.56;5021997;28;45495;-61
2021/09/17 10:30:37;;;;;;;;;4.50;4.50;;;;;23.20;50.13;101099.91;5021948;28;46020;-62
2021/09/17 10:33:03;;;;;;;;;6.00;6.00;;;;;23.28;50.34;101088.69;5022248;28;45362;-62
2021/09/17 10:35:49;;;;;;;;;6.50;6.50;;;;;23.40;50.08;101104.03;5007672;28;45642;-62
2021/09/17 10:38:26;;;;;;;;;5.25;5.00;;;;;23.52;50.15;101091.63;5021820;28;45530;-62
2021/09/17 10:41:03;;;;;;;;;9.50;8.50;;;;;23.66;50.17;101098.81;5021330;28;46093;-62
2021/09/17 10:43:38;;;;;;;;;5.00;4.75;;;;;23.80;49.87;101100.63;5021526;28;45320;-62
2021/09/17 10:46:24;;;;;;;;;6.75;6.75;;;;;23.94;49.48;101092.56;5022106;28;45196;-62
2021/09/17 10:48:51;;;;;;;;;7.25;7.25;;;;;24.10;49.61;101099.59;4996340;28;45236;-62
2021/09/17 10:51:27;;;;;;;;;7.25;7.25;;;;;24.22;49.54;101089.91;5001826;28;46060;-62
2021/09/17 10:53:57;;;;;;;;;4.25;4.25;;;;;24.27;49.57;101080.56;5001964;28;45307;-62
2021/09/17 10:56:23;;;;;;;;;5.50;1.00;;;;;24.48;49.61;101088.16;5001592;28;45270;-62
2021/09/17 10:59:10;;;;;;;;;7.75;7.25;;;;;24.67;49.65;101090.47;5001662;28;45348;-62
2021/09/17 11:02:01;;;;;;;;;6.00;6.00;;;;;24.85;49.37;101082.97;5017180;28;47233;-63
2021/09/17 11:04:32;;;;;;;;;5.75;5.75;;;;;25.03;48.81;101079.97;5008005;28;45259;-63
2021/09/17 11:07:32;;;;;;;;;6.25;6.25;;;;;25.24;48.87;101086.50;5001839;28;45325;-63
2021/09/17 11:09:57;;;;;;;;;7.50;6.25;;;;;25.39;48.91;101089.13;5001515;28;45288;-62
2021/09/17 11:12:25;;;;;;;;;7.75;5.25;;;;;25.53;48.84;101085.44;5001539;28;45275;-62